A27 weather

Public forecast

Using degrees Fahrenheit for public forecast. Weather courtesy of forecast.io.

Closest aviation weather report (METAR) to Seldovia Seaplane Base

Closest report is Seldovia Airport, 0.5 nm (1.0 km) NNE. Retrieved 2020/08/14 16:53 UTC (35 minutes ago):

PASO 141653Z AUTO 00000KT 10SM CLR 10/09 A2994 RMK AO2 SLP139 T01000094 TSNO

Closest aviation forecast (TAF) to Seldovia Seaplane Base

Closest forecast is Homer Airport, 14.5 nm (26.9 km) NNE. Retrieved 2020/08/14 12:42 UTC (5 hours ago):

TAF PAHO 141140Z 1412/1512 VRB03KT 1 1/2SM BR SCT005 FM141700 VRB03KT P6SM SKC FM142100 25010KT P6SM SKC FM150600 VRB04KT P6SM SKC